createdAt,value
2023-01-29T00:02:06.794Z,22.80
2023-01-29T00:04:33.414Z,22.20
2023-01-29T00:07:00.259Z,21.40
2023-01-29T00:09:28.024Z,25.03
2023-01-29T00:11:54.583Z,26.03
2023-01-29T00:14:21.319Z,22.70
2023-01-29T00:16:47.947Z,22.43
2023-01-29T00:19:14.554Z,25.50
2023-01-29T00:21:41.148Z,24.33
2023-01-29T00:24:07.901Z,23.30
2023-01-29T00:26:35.127Z,23.93
2023-01-29T00:29:02.559Z,24.70
2023-01-29T00:31:29.554Z,23.90
2023-01-29T00:33:56.628Z,22.10
2023-01-29T00:36:23.926Z,25.10
2023-01-29T00:39:02.486Z,22.57
2023-01-29T00:41:50.467Z,22.27
2023-01-29T00:44:36.401Z,22.50
2023-01-29T00:47:04.209Z,24.57
2023-01-29T00:49:30.794Z,24.73
2023-01-29T00:52:16.140Z,24.20
2023-01-29T00:54:42.689Z,23.40
2023-01-29T00:57:09.292Z,24.07
2023-01-29T00:59:35.863Z,24.70
2023-01-29T01:02:21.032Z,23.37
2023-01-29T01:04:47.595Z,23.90
2023-01-29T01:07:14.187Z,22.37
2023-01-29T01:09:59.398Z,24.03
2023-01-29T01:12:26.027Z,24.50
2023-01-29T01:14:52.770Z,24.37
2023-01-29T01:17:19.514Z,23.40
2023-01-29T01:19:46.136Z,22.13
2023-01-29T01:22:12.810Z,22.43
2023-01-29T01:24:40.278Z,22.90
2023-01-29T01:27:06.861Z,22.80
2023-01-29T01:29:33.731Z,21.40
2023-01-29T01:32:00.422Z,21.80
2023-01-29T01:34:27.484Z,24.47
2023-01-29T01:36:55.841Z,23.67
2023-01-29T01:39:23.110Z,23.80
2023-01-29T01:41:49.761Z,22.97
2023-01-29T01:44:51.079Z,23.43
2023-01-29T01:47:20.529Z,22.87
2023-01-29T01:50:12.689Z,21.33
2023-01-29T01:52:46.014Z,22.83
2023-01-29T01:55:18.454Z,22.57
2023-01-29T01:57:51.465Z,23.47
2023-01-29T02:00:20.870Z,22.73
2023-01-29T02:03:09.567Z,22.57
2023-01-29T02:05:59.522Z,21.73
2023-01-29T02:08:58.748Z,24.23
2023-01-29T02:11:25.445Z,23.37
2023-01-29T02:13:55.697Z,22.10
2023-01-29T02:16:27.146Z,22.00
2023-01-29T02:18:58.462Z,20.80
2023-01-29T02:21:42.673Z,20.77
2023-01-29T02:24:43.945Z,20.93
2023-01-29T02:27:25.389Z,22.60
2023-01-29T02:30:02.374Z,23.77
2023-01-29T02:33:09.655Z,21.53
2023-01-29T02:36:06.714Z,20.83
2023-01-29T02:39:12.341Z,21.40
2023-01-29T02:41:50.725Z,23.80
2023-01-29T02:44:24.684Z,23.10
2023-01-29T02:47:14.678Z,23.30
2023-01-29T02:49:46.590Z,21.80
2023-01-29T02:52:23.324Z,21.67
2023-01-29T02:55:11.902Z,21.83
2023-01-29T02:57:42.704Z,23.57
2023-01-29T03:00:23.640Z,22.90
2023-01-29T03:03:17.736Z,23.33
2023-01-29T03:06:18.245Z,21.50
2023-01-29T03:08:50.857Z,24.70
2023-01-29T03:11:18.169Z,23.90
2023-01-29T03:14:13.261Z,23.73
2023-01-29T03:16:48.761Z,22.23
2023-01-29T03:19:24.604Z,21.77
2023-01-29T03:21:59.475Z,23.47
2023-01-29T03:25:08.928Z,22.67
2023-01-29T03:28:05.189Z,23.33
2023-01-29T03:30:53.607Z,22.03
2023-01-29T03:33:23.482Z,23.93
2023-01-29T03:36:00.701Z,24.07
2023-01-29T03:38:29.530Z,22.87
2023-01-29T03:41:06.043Z,25.07
2023-01-29T03:43:47.928Z,22.03
2023-01-29T03:46:58.353Z,21.50
2023-01-29T03:50:05.673Z,22.17
2023-01-29T03:53:04.334Z,23.77
2023-01-29T03:55:35.202Z,23.10
2023-01-29T03:58:20.324Z,22.27
2023-01-29T04:01:28.295Z,21.10
2023-01-29T04:04:12.291Z,21.87
2023-01-29T04:06:41.981Z,22.57
2023-01-29T04:09:13.621Z,23.03
2023-01-29T04:11:45.266Z,20.47
2023-01-29T04:14:13.260Z,23.63
2023-01-29T04:16:48.355Z,22.40
2023-01-29T04:19:15.049Z,23.00
2023-01-29T04:21:41.870Z,23.30
2023-01-29T04:24:10.017Z,21.43
2023-01-29T04:26:42.285Z,21.87
2023-01-29T04:29:21.909Z,21.97
2023-01-29T04:32:04.240Z,21.87
2023-01-29T04:35:01.636Z,23.77
2023-01-29T04:37:52.170Z,21.67
2023-01-29T04:40:26.908Z,23.63
2023-01-29T04:43:05.122Z,23.07
2023-01-29T04:45:45.841Z,21.40
2023-01-29T04:48:15.429Z,22.27
2023-01-29T04:50:56.179Z,21.63
2023-01-29T04:53:36.744Z,21.57
2023-01-29T04:56:19.594Z,23.20
2023-01-29T04:58:51.519Z,20.17
2023-01-29T05:01:19.900Z,19.80
2023-01-29T05:03:51.438Z,21.40
2023-01-29T05:06:18.921Z,21.33
2023-01-29T05:08:48.925Z,20.63
2023-01-29T05:11:16.964Z,19.33
2023-01-29T05:13:43.590Z,21.40
2023-01-29T05:16:16.901Z,21.10
2023-01-29T05:18:43.614Z,20.40
2023-01-29T05:21:10.433Z,18.80
2023-01-29T05:23:37.162Z,19.63
2023-01-29T05:26:04.341Z,19.53
2023-01-29T05:28:30.989Z,19.57
2023-01-29T05:30:57.762Z,19.93
2023-01-29T05:33:29.749Z,19.27
2023-01-29T05:35:59.149Z,17.77
2023-01-29T05:38:26.284Z,19.17
2023-01-29T05:40:53.935Z,19.13
2023-01-29T05:43:23.406Z,16.87
2023-01-29T05:46:00.743Z,17.90
2023-01-29T05:48:28.994Z,16.77
2023-01-29T05:51:03.746Z,17.70
2023-01-29T05:53:31.283Z,18.10
2023-01-29T05:56:01.499Z,17.30
2023-01-29T05:58:28.167Z,17.47
2023-01-29T06:00:54.732Z,19.53
2023-01-29T06:03:21.307Z,18.33
2023-01-29T06:05:47.869Z,18.13
2023-01-29T06:08:14.479Z,17.13
2023-01-29T06:10:41.022Z,16.53
2023-01-29T06:13:07.876Z,18.93
2023-01-29T06:15:34.521Z,17.60
2023-01-29T06:18:01.156Z,18.00
2023-01-29T06:20:27.726Z,19.67
2023-01-29T06:22:54.279Z,21.00
2023-01-29T06:25:20.866Z,17.37
2023-01-29T06:27:50.953Z,19.03
2023-01-29T06:30:17.934Z,18.90
2023-01-29T06:32:44.789Z,18.03
2023-01-29T06:35:11.387Z,19.80
2023-01-29T06:37:38.273Z,18.67
2023-01-29T06:40:05.276Z,20.10
2023-01-29T06:42:31.840Z,18.17
2023-01-29T06:44:58.400Z,18.23
2023-01-29T06:47:24.992Z,18.07
2023-01-29T06:49:52.033Z,18.57
2023-01-29T06:52:18.615Z,19.57
2023-01-29T06:54:45.146Z,19.13
2023-01-29T06:57:11.699Z,19.03
2023-01-29T06:59:38.294Z,18.93
2023-01-29T07:02:05.086Z,16.80
2023-01-29T07:04:31.748Z,19.10
2023-01-29T07:06:59.972Z,18.53
2023-01-29T07:09:26.570Z,18.90
2023-01-29T07:11:53.159Z,18.80
2023-01-29T07:14:19.698Z,17.70
2023-01-29T07:16:46.222Z,18.80
2023-01-29T07:19:12.865Z,18.60
2023-01-29T07:21:39.431Z,19.67
2023-01-29T07:24:06.334Z,18.60
2023-01-29T07:26:32.942Z,19.60
2023-01-29T07:28:59.538Z,19.83
2023-01-29T07:31:26.145Z,21.00
2023-01-29T07:33:52.793Z,19.50
2023-01-29T07:36:19.472Z,20.63
2023-01-29T07:38:50.482Z,20.33
2023-01-29T07:41:17.076Z,19.03
2023-01-29T07:43:43.717Z,20.40
2023-01-29T07:46:10.382Z,20.50
2023-01-29T07:48:37.183Z,18.27
2023-01-29T07:51:06.226Z,19.00
2023-01-29T07:53:32.834Z,20.70
2023-01-29T07:55:59.486Z,18.90
2023-01-29T07:58:26.133Z,18.47
2023-01-29T08:00:52.724Z,20.83
2023-01-29T08:03:22.727Z,20.47
2023-01-29T08:05:49.407Z,19.50
2023-01-29T08:08:16.348Z,18.23
2023-01-29T08:10:43.311Z,19.13
2023-01-29T08:13:10.264Z,18.30
2023-01-29T08:15:39.088Z,18.87
2023-01-29T08:18:06.385Z,20.43
2023-01-29T08:20:33.022Z,18.47
2023-01-29T08:23:28.282Z,18.40
2023-01-29T08:25:54.933Z,20.00
2023-01-29T08:28:21.628Z,19.87
2023-01-29T08:30:48.224Z,19.20
2023-01-29T08:33:16.199Z,20.10
2023-01-29T08:35:42.919Z,18.73
2023-01-29T08:38:10.519Z,19.70
2023-01-29T08:40:37.550Z,19.97
2023-01-29T08:43:09.159Z,19.70
2023-01-29T08:45:39.717Z,19.87
2023-01-29T08:48:06.717Z,19.47
2023-01-29T08:50:34.861Z,17.77
2023-01-29T08:53:03.514Z,18.23
2023-01-29T08:55:30.266Z,21.37
2023-01-29T08:57:59.825Z,22.03
2023-01-29T09:00:26.527Z,20.70
2023-01-29T09:02:53.179Z,21.17
2023-01-29T09:05:20.193Z,21.50
2023-01-29T09:07:46.978Z,21.07
2023-01-29T09:10:13.740Z,19.00
2023-01-29T09:12:40.317Z,18.70
2023-01-29T09:15:07.476Z,21.50
2023-01-29T09:17:34.278Z,20.10
2023-01-29T09:20:00.954Z,21.03
2023-01-29T09:22:28.277Z,20.40
2023-01-29T09:24:54.881Z,20.80
2023-01-29T09:27:21.464Z,19.10
2023-01-29T09:29:48.041Z,19.53
2023-01-29T09:32:15.602Z,19.80
2023-01-29T09:34:43.454Z,20.20
2023-01-29T09:37:10.033Z,20.10
2023-01-29T09:39:37.946Z,20.23
2023-01-29T09:42:19.241Z,20.00
2023-01-29T09:44:53.785Z,20.17
2023-01-29T09:47:23.792Z,19.53
2023-01-29T09:49:57.058Z,17.90
2023-01-29T09:52:31.304Z,18.27
2023-01-29T09:55:02.566Z,19.40
2023-01-29T09:57:47.036Z,19.53
2023-01-29T10:00:48.158Z,21.23
2023-01-29T10:03:44.062Z,18.80
2023-01-29T10:06:38.120Z,19.83
2023-01-29T10:09:30.636Z,19.47
2023-01-29T10:12:41.880Z,21.10
2023-01-29T10:15:30.990Z,20.63
2023-01-29T10:18:45.410Z,20.53
2023-01-29T10:21:24.949Z,19.10
2023-01-29T10:24:01.812Z,19.80
2023-01-29T10:26:29.701Z,18.73
2023-01-29T10:28:58.465Z,18.70
2023-01-29T10:31:33.154Z,19.97
2023-01-29T10:34:25.529Z,19.77
2023-01-29T10:36:54.899Z,20.33
2023-01-29T10:39:24.426Z,20.77
2023-01-29T10:42:18.708Z,20.27
2023-01-29T10:45:09.616Z,20.20
2023-01-29T10:47:52.693Z,18.47
2023-01-29T10:50:28.579Z,19.33
2023-01-29T10:53:27.554Z,19.63
2023-01-29T10:56:22.752Z,20.80
2023-01-29T10:59:11.564Z,18.97
2023-01-29T11:01:38.141Z,18.20
2023-01-29T11:04:11.594Z,19.43
2023-01-29T11:06:38.267Z,19.40
2023-01-29T11:09:37.652Z,18.30
2023-01-29T11:12:13.945Z,19.33
2023-01-29T11:14:43.520Z,18.83
2023-01-29T11:17:18.945Z,19.20
2023-01-29T11:19:47.299Z,18.00
2023-01-29T11:22:16.664Z,20.33
2023-01-29T11:24:43.893Z,18.20
2023-01-29T11:27:25.750Z,18.50
2023-01-29T11:29:56.066Z,18.10
2023-01-29T11:32:22.582Z,19.00
2023-01-29T11:35:19.158Z,20.20
2023-01-29T11:37:46.937Z,19.30
2023-01-29T11:40:19.442Z,18.90
2023-01-29T11:42:49.854Z,18.53
2023-01-29T11:45:34.826Z,18.43
2023-01-29T11:48:01.715Z,19.93
2023-01-29T11:50:32.917Z,18.00
2023-01-29T11:53:00.417Z,18.33
2023-01-29T11:55:40.970Z,18.43
2023-01-29T11:58:26.280Z,20.43
2023-01-29T12:00:55.624Z,18.57
2023-01-29T12:03:37.362Z,17.40
2023-01-29T12:06:06.962Z,17.13
2023-01-29T12:08:41.879Z,17.87
2023-01-29T12:11:12.745Z,16.37
2023-01-29T12:13:43.105Z,18.03
2023-01-29T12:16:22.697Z,18.27
2023-01-29T12:18:55.726Z,18.43
2023-01-29T12:21:32.189Z,17.60
2023-01-29T12:24:07.460Z,19.47
2023-01-29T12:27:00.724Z,16.87
2023-01-29T12:29:40.538Z,17.63
2023-01-29T12:32:30.520Z,18.13
2023-01-29T12:35:19.074Z,18.27
2023-01-29T12:37:58.832Z,18.90
2023-01-29T12:40:29.402Z,16.10
2023-01-29T12:43:02.514Z,18.47
2023-01-29T12:45:30.768Z,17.97
2023-01-29T12:48:10.504Z,17.70
2023-01-29T12:50:38.450Z,18.73
2023-01-29T12:53:31.174Z,18.60
2023-01-29T12:56:07.845Z,17.43
2023-01-29T12:58:55.007Z,15.63
2023-01-29T13:01:38.409Z,17.37
2023-01-29T13:04:36.558Z,16.57
2023-01-29T13:07:18.870Z,17.10
2023-01-29T13:09:51.051Z,17.50
2023-01-29T13:12:19.349Z,17.57
2023-01-29T13:14:46.172Z,16.50
2023-01-29T13:17:32.519Z,17.10
2023-01-29T13:20:04.369Z,18.10
2023-01-29T13:22:36.770Z,16.50
2023-01-29T13:25:05.447Z,16.40
2023-01-29T13:27:34.682Z,15.70
2023-01-29T13:30:01.736Z,17.90
2023-01-29T13:32:30.527Z,19.13
2023-01-29T13:35:01.172Z,17.83
2023-01-29T13:37:36.047Z,18.67
2023-01-29T13:40:05.567Z,17.23
2023-01-29T13:42:45.597Z,16.90
2023-01-29T13:45:21.371Z,16.40
2023-01-29T13:47:51.319Z,18.87
2023-01-29T13:50:39.653Z,17.17
2023-01-29T13:53:09.025Z,17.10
2023-01-29T13:55:40.565Z,16.40
2023-01-29T13:58:17.525Z,18.40
2023-01-29T14:00:44.031Z,16.83
2023-01-29T14:03:13.248Z,17.63
2023-01-29T14:06:00.404Z,15.10
2023-01-29T14:08:38.919Z,16.73
2023-01-29T14:11:21.495Z,16.40
2023-01-29T14:13:49.868Z,15.80
2023-01-29T14:16:16.390Z,16.60
2023-01-29T14:18:49.184Z,16.40
2023-01-29T14:21:27.981Z,17.80
2023-01-29T14:23:57.842Z,16.00
2023-01-29T14:26:45.041Z,16.30
2023-01-29T14:29:32.553Z,16.97
2023-01-29T14:32:06.112Z,17.20
2023-01-29T14:34:59.529Z,16.67
2023-01-29T14:37:39.247Z,16.00
2023-01-29T14:40:11.572Z,17.00
2023-01-29T14:42:45.187Z,16.27
2023-01-29T14:45:35.935Z,15.70
2023-01-29T14:48:10.270Z,17.33
2023-01-29T14:50:37.601Z,16.03
2023-01-29T14:53:29.899Z,15.20
2023-01-29T14:55:59.292Z,16.90
2023-01-29T14:58:46.375Z,15.50
2023-01-29T15:01:21.001Z,15.20
2023-01-29T15:04:28.394Z,16.40
2023-01-29T15:07:16.603Z,16.40
2023-01-29T15:10:21.326Z,14.93
2023-01-29T15:13:20.447Z,16.13
2023-01-29T15:15:52.810Z,17.37
2023-01-29T15:18:34.581Z,16.17
2023-01-29T15:21:14.584Z,15.93
2023-01-29T15:23:43.075Z,18.40
2023-01-29T15:26:21.711Z,16.40
2023-01-29T15:29:03.615Z,16.27
2023-01-29T15:31:31.548Z,16.90
2023-01-29T15:34:02.868Z,17.67
2023-01-29T15:36:31.410Z,15.90
2023-01-29T15:39:13.246Z,16.80
2023-01-29T15:41:40.060Z,16.97
2023-01-29T15:44:21.052Z,19.00
2023-01-29T15:46:59.732Z,17.60
2023-01-29T15:49:34.728Z,16.17
2023-01-29T15:52:05.848Z,15.70
2023-01-29T15:54:34.740Z,18.13
2023-01-29T15:57:02.811Z,17.20
2023-01-29T15:59:34.575Z,16.33
2023-01-29T16:02:41.254Z,15.63
2023-01-29T16:05:39.413Z,16.47
2023-01-29T16:08:07.533Z,17.27
2023-01-29T16:10:34.824Z,17.60
2023-01-29T16:13:02.787Z,17.07
2023-01-29T16:15:33.613Z,17.00
2023-01-29T16:18:02.189Z,17.70
2023-01-29T16:20:43.105Z,16.40
2023-01-29T16:23:22.283Z,18.00
2023-01-29T16:25:49.463Z,16.40
2023-01-29T16:28:17.183Z,18.20
2023-01-29T16:30:43.838Z,17.73
2023-01-29T16:33:17.303Z,17.07
2023-01-29T16:35:51.199Z,18.00
2023-01-29T16:38:28.289Z,17.43
2023-01-29T16:41:18.777Z,19.10
2023-01-29T16:43:48.299Z,19.07
2023-01-29T16:46:24.012Z,19.77
2023-01-29T16:48:51.033Z,15.73
2023-01-29T16:51:25.814Z,18.63
2023-01-29T16:53:58.027Z,17.00
2023-01-29T16:56:26.408Z,17.03
2023-01-29T16:58:54.341Z,17.77
2023-01-29T17:01:24.260Z,17.33
2023-01-29T17:04:07.509Z,17.67
2023-01-29T17:06:34.734Z,17.80
2023-01-29T17:09:01.802Z,17.23
2023-01-29T17:11:39.939Z,16.67
2023-01-29T17:14:08.479Z,17.17
2023-01-29T17:16:46.487Z,17.40
2023-01-29T17:19:18.356Z,16.47
2023-01-29T17:21:45.422Z,16.17
2023-01-29T17:24:12.128Z,15.20
2023-01-29T17:26:39.593Z,16.40
2023-01-29T17:29:08.170Z,16.10
2023-01-29T17:31:34.852Z,14.47
2023-01-29T17:34:01.471Z,15.57
2023-01-29T17:36:28.028Z,16.40
2023-01-29T17:38:54.578Z,15.60
2023-01-29T17:41:29.543Z,16.57
2023-01-29T17:43:56.164Z,15.67
2023-01-29T17:46:22.809Z,15.30
2023-01-29T17:48:49.774Z,17.40
2023-01-29T17:51:18.018Z,15.67
2023-01-29T17:53:46.430Z,15.97
2023-01-29T17:56:21.127Z,15.50
2023-01-29T17:58:47.676Z,17.27
2023-01-29T18:01:14.232Z,15.87
2023-01-29T18:03:41.488Z,15.43
2023-01-29T18:06:09.328Z,15.80
2023-01-29T18:08:38.013Z,15.70
2023-01-29T18:11:04.814Z,16.60
2023-01-29T18:13:31.545Z,15.63
2023-01-29T18:15:58.141Z,16.43
2023-01-29T18:18:25.028Z,15.40
2023-01-29T18:20:51.861Z,16.10
2023-01-29T18:23:18.433Z,16.07
2023-01-29T18:25:45.146Z,14.87
2023-01-29T18:28:17.161Z,16.40
2023-01-29T18:30:46.969Z,16.17
2023-01-29T18:33:13.900Z,15.30
2023-01-29T18:35:40.622Z,15.70
2023-01-29T18:38:07.299Z,16.27
2023-01-29T18:40:33.917Z,15.63
2023-01-29T18:43:00.830Z,14.80
2023-01-29T18:45:28.367Z,14.80
2023-01-29T18:47:55.299Z,14.77
2023-01-29T18:50:26.059Z,15.57
2023-01-29T18:52:54.215Z,14.83
2023-01-29T18:55:21.456Z,14.87
2023-01-29T18:58:29.537Z,15.00
2023-01-29T19:00:34.958Z,17.43
2023-01-29T19:03:02.124Z,16.83
2023-01-29T19:05:28.719Z,16.00
2023-01-29T19:07:55.349Z,16.80
2023-01-29T19:10:22.575Z,15.80
2023-01-29T19:12:49.149Z,15.47
2023-01-29T19:15:20.406Z,16.20
2023-01-29T19:17:46.951Z,15.53
2023-01-29T19:20:13.575Z,16.27
2023-01-29T19:22:40.673Z,15.13
2023-01-29T19:25:07.738Z,15.50
2023-01-29T19:27:34.424Z,14.80
2023-01-29T19:30:02.010Z,16.00
2023-01-29T19:32:31.721Z,16.40
2023-01-29T19:34:58.586Z,16.27
2023-01-29T19:37:25.608Z,16.40
2023-01-29T19:39:53.575Z,14.70
2023-01-29T19:42:20.807Z,16.10
2023-01-29T19:44:47.618Z,16.77
2023-01-29T19:47:14.283Z,15.33
2023-01-29T19:49:40.934Z,13.63
2023-01-29T19:52:14.590Z,16.17
2023-01-29T19:54:48.722Z,16.33
2023-01-29T19:57:15.262Z,17.60
2023-01-29T19:59:45.616Z,18.00
2023-01-29T20:02:12.538Z,14.20
2023-01-29T20:04:39.131Z,16.63
2023-01-29T20:07:05.709Z,14.17
2023-01-29T20:09:32.476Z,14.53
2023-01-29T20:11:59.098Z,14.00
2023-01-29T20:14:25.739Z,15.50
2023-01-29T20:16:52.351Z,15.60
2023-01-29T20:19:20.475Z,14.93
2023-01-29T20:21:48.764Z,15.37
2023-01-29T20:24:15.421Z,14.03
2023-01-29T20:26:42.034Z,15.67
2023-01-29T20:29:08.625Z,14.37
2023-01-29T20:31:35.387Z,15.27
2023-01-29T20:34:01.992Z,14.73
2023-01-29T20:36:28.585Z,14.13
2023-01-29T20:42:42.958Z,16.67
2023-01-29T20:45:10.010Z,14.23
2023-01-29T20:47:36.619Z,14.20
2023-01-29T20:50:08.407Z,15.80
2023-01-29T20:52:35.617Z,15.60
2023-01-29T20:55:03.694Z,14.60
2023-01-29T20:57:30.597Z,13.60
2023-01-29T20:59:57.209Z,14.07
2023-01-29T21:02:23.867Z,14.30
2023-01-29T21:04:50.459Z,16.00
2023-01-29T21:07:17.148Z,16.17
2023-01-29T21:09:43.739Z,18.00
2023-01-29T21:12:10.443Z,15.20
2023-01-29T21:14:37.208Z,15.77
2023-01-29T21:17:04.784Z,15.17
2023-01-29T21:19:31.512Z,14.77
2023-01-29T21:21:58.094Z,15.50
2023-01-29T21:24:25.102Z,16.10
2023-01-29T21:26:51.901Z,14.50
2023-01-29T21:29:18.742Z,15.40
2023-01-29T21:31:45.677Z,15.93
2023-01-29T21:34:12.600Z,16.07
2023-01-29T21:36:39.213Z,15.80
2023-01-29T21:39:16.365Z,15.10
2023-01-29T21:42:02.933Z,16.70
2023-01-29T21:44:29.676Z,15.23
2023-01-29T21:46:56.607Z,15.80
2023-01-29T21:49:23.407Z,17.00
2023-01-29T21:51:50.132Z,16.83
2023-01-29T21:54:16.862Z,15.00
2023-01-29T21:56:43.514Z,15.90
2023-01-29T21:59:11.460Z,15.77
2023-01-29T22:01:38.896Z,15.00
2023-01-29T22:04:08.466Z,15.40
2023-01-29T22:06:35.076Z,15.77
2023-01-29T22:09:01.641Z,15.83
2023-01-29T22:11:28.589Z,15.40
2023-01-29T22:13:55.149Z,15.93
2023-01-29T22:16:21.786Z,14.10
2023-01-29T22:18:49.255Z,16.30
2023-01-29T22:21:15.826Z,15.37
2023-01-29T22:23:42.370Z,16.40
2023-01-29T22:26:11.061Z,15.50
2023-01-29T22:28:37.623Z,16.03
2023-01-29T22:31:05.373Z,16.50
2023-01-29T22:33:33.353Z,16.00
2023-01-29T22:36:00.025Z,15.80
2023-01-29T22:38:30.282Z,15.20
2023-01-29T22:40:59.544Z,15.93
2023-01-29T22:43:26.247Z,15.87
2023-01-29T22:45:52.900Z,15.60
2023-01-29T22:48:19.447Z,15.43
2023-01-29T22:50:53.603Z,17.67
2023-01-29T22:53:20.234Z,17.53
2023-01-29T22:55:56.154Z,15.83
2023-01-29T22:58:22.723Z,16.03
2023-01-29T23:00:52.375Z,16.70
2023-01-29T23:03:18.968Z,16.90
2023-01-29T23:05:45.550Z,15.13
2023-01-29T23:08:12.091Z,15.40
2023-01-29T23:10:38.817Z,15.40
2023-01-29T23:13:05.470Z,15.63
2023-01-29T23:15:32.099Z,16.37
2023-01-29T23:17:58.782Z,15.73
2023-01-29T23:20:25.365Z,16.13
2023-01-29T23:22:52.309Z,15.50
2023-01-29T23:25:18.935Z,15.20
2023-01-29T23:27:45.505Z,16.40
2023-01-29T23:30:12.345Z,15.43
2023-01-29T23:32:39.070Z,16.20
2023-01-29T23:35:06.107Z,15.83
2023-01-29T23:37:32.701Z,16.00
2023-01-29T23:39:59.316Z,16.83
2023-01-29T23:42:25.942Z,17.07
2023-01-29T23:44:52.475Z,16.00
2023-01-29T23:47:19.024Z,17.10
2023-01-29T23:49:45.664Z,18.10
2023-01-29T23:52:12.252Z,17.80
2023-01-29T23:54:38.848Z,16.40
2023-01-29T23:57:05.405Z,17.27
2023-01-29T23:59:32.008Z,16.50
